West Rockport, ME (04865)

8:48 PM EST on December 02, 2016 (GMT -0500)
Beech Hill Road | | Change Station

Elev 488 ft 44.17 °N, 69.10 °W | Updated 9 minutes ago

Scattered Clouds
Scattered Clouds
37.4 °F
Feels Like 37 °F
N
0.0
Wind Variable Wind from North
Gusts 1.2 mph

Today
High -- | Low -- °F
--% Chance of Precip.
Yesterday
High -- | Low -- °F
Precip. -- in
Pressure 29.64 in
Visibility 10.0 miles
Clouds Scattered Clouds 12000 ft
Windchill 37 °F
Dew Point 35 °F
Humidity 90%
Rainfall 0.00 in
Snow Depth Not available.
6:53 AM 3:58 PM
Waxing Crescent, 11% visible
METAR KRKD 030056Z AUTO 26007KT 10SM SCT120 04/02 A2963 RMK AO2 SLP037 T00440017
Pressure 29.64 in
Visibility 10.0 miles
Clouds Scattered Clouds 12000 ft
Windchill 37 °F
Dew Point 35 °F
Humidity 90%
Rainfall 0.00 in
Snow Depth Not available.
6:53 AM 3:58 PM
Waxing Crescent, 11% visible
METAR KRKD 030056Z AUTO 26007KT 10SM SCT120 04/02 A2963 RMK AO2 SLP037 T00440017

10-Day Weather Forecast

Almanac

Astronomy

Dec. 02, 2016 Rise Set
Actual Time
Civil Twilight
Nautical Twilight
Astronomical Twilight
Moon
Length of Visible Light
Length of Day
Tomorrow will be .
, % of the Moon is Illuminated

Today's Extremes

State Highs State Lows

Community

WunderPhotos

Upload Photos

1,955,392 photos uploaded!

WunderBlog® & News

Nearby

Air Quality

  Air Quality AQ Index Pollutant
Not available.

Snow Depth

Station Depth Elevation

Earthquake Activity

City Distance Mag. Time & Date
Minimum magnitude displayed is 2.5.

Coastal Water Temperatures

Place Temperature

Stations

Nearby Weather Stations

Station Location Temp. Windchill Dew Point Humidity Wind Precip. Elev Updated Type
                   

Watches & Warnings

There are currently no watches in effect.